Time;durP1;ratioP1;P1;durP2;ratioP2;P2;SDS_P1;SDS_P2;PMS_P1;PMS_P2;Temp;Humidity;BMP_temperature;BMP_pressure;BME280_temperature;BME280_humidity;BME280_pressure;Samples;Min_cycle;Max_cycle;Signal;HPM_P1;HPM_P2
2023/07/22 00:00:33;;;;;;;;;;;15.80;99.90;;;;;;2075519;28;20075;-72
2023/07/22 00:01:34;;;;;;;;;;;15.80;99.90;;;;;;2076294;28;19952;-72
2023/07/22 00:02:34;;;;;;;;;;;15.80;99.90;;;;;;2076778;28;19920;-73
2023/07/22 00:03:35;;;;;;;;;;;15.80;99.90;;;;;;2078222;28;19913;-73
2023/07/22 00:04:35;;;;;;;;;;;15.80;99.90;;;;;;2075529;28;20376;-72
2023/07/22 00:05:36;;;;;;;;;;;15.80;99.90;;;;;;2074041;28;19976;-73
2023/07/22 00:06:36;;;;;;;;;;;15.80;99.90;;;;;;2075435;28;20011;-72
2023/07/22 00:07:37;;;;;;;;;;;15.80;99.90;;;;;;2077185;28;19972;-74
2023/07/22 00:08:38;;;;;;;;;;;15.80;99.90;;;;;;2071568;28;19956;-72
2023/07/22 00:09:38;;;;;;;;;;;15.80;99.90;;;;;;2076089;28;19928;-73
2023/07/22 00:10:42;;;;;;;;;;;15.80;99.90;;;;;;2087077;28;19917;-73
2023/07/22 00:11:43;;;;;;;;;;;15.80;99.90;;;;;;2080911;28;19913;-73
2023/07/22 00:12:43;;;;;;;;;;;15.70;99.90;;;;;;2075419;28;20300;-73
2023/07/22 00:13:44;;;;;;;;;;;15.70;99.90;;;;;;2075057;28;19927;-73
2023/07/22 00:14:44;;;;;;;;;;;15.70;99.90;;;;;;2075391;28;19917;-73
2023/07/22 00:15:45;;;;;;;;;;;15.70;99.90;;;;;;2077044;28;19918;-72
2023/07/22 00:16:45;;;;;;;;;;;15.70;99.90;;;;;;2075665;28;19921;-72
2023/07/22 00:17:46;;;;;;;;;;;15.80;99.90;;;;;;2075405;28;19917;-72
2023/07/22 00:18:47;;;;;;;;;;;15.70;99.90;;;;;;2075155;28;19917;-72
2023/07/22 00:19:48;;;;;;;;;;;15.70;99.90;;;;;;2076016;28;19924;-73
2023/07/22 00:20:48;;;;;;;;;;;15.70;99.90;;;;;;2077672;28;19924;-74
2023/07/22 00:21:49;;;;;;;;;;;15.70;99.90;;;;;;2067003;28;19917;-73
2023/07/22 00:22:50;;;;;;;;;;;15.70;99.90;;;;;;2066890;28;20371;-73
2023/07/22 00:23:50;;;;;;;;;;;15.70;99.90;;;;;;2075976;28;19992;-73
2023/07/22 00:24:51;;;;;;;;;;;15.70;99.90;;;;;;2077821;28;20547;-73
2023/07/22 00:25:51;;;;;;;;;;;15.70;99.90;;;;;;2066916;28;19956;-73
2023/07/22 00:26:52;;;;;;;;;;;15.70;99.90;;;;;;2066947;28;19976;-74
2023/07/22 00:27:52;;;;;;;;;;;15.70;99.90;;;;;;2066969;28;19935;-73
2023/07/22 00:28:53;;;;;;;;;;;15.70;99.90;;;;;;2068966;28;20459;-73
2023/07/22 00:29:54;;;;;;;;;;;15.70;99.90;;;;;;2068717;28;19918;-73
2023/07/22 00:30:54;;;;;;;;;;;15.60;99.90;;;;;;2071176;28;19917;-72
2023/07/22 00:31:55;;;;;;;;;;;15.70;99.90;;;;;;2087388;28;20375;-73
2023/07/22 00:32:55;;;;;;;;;;;15.60;99.90;;;;;;2072902;28;20003;-73
2023/07/22 00:33:56;;;;;;;;;;;15.70;99.90;;;;;;2073807;28;20390;-73
2023/07/22 00:34:56;;;;;;;;;;;15.70;99.90;;;;;;2073799;28;20284;-73
2023/07/22 00:35:57;;;;;;;;;;;15.60;99.90;;;;;;2075285;28;19917;-72
2023/07/22 00:36:57;;;;;;;;;;;15.70;99.90;;;;;;2077382;28;19917;-72
2023/07/22 00:37:59;;;;;;;;;;;15.60;99.90;;;;;;2088446;28;19964;-72
2023/07/22 00:39:00;;;;;;;;;;;15.60;99.90;;;;;;2075996;28;20327;-73
2023/07/22 00:40:01;;;;;;;;;;;15.60;99.90;;;;;;2067094;28;20693;-73
2023/07/22 00:41:04;;;;;;;;;;;15.60;99.90;;;;;;2069170;28;19914;-73
2023/07/22 00:42:08;;;;;;;;;;;15.50;99.90;;;;;;2075227;28;19956;-72
2023/07/22 00:43:08;;;;;;;;;;;15.60;99.90;;;;;;2075044;28;20415;-72
2023/07/22 00:44:09;;;;;;;;;;;15.60;99.90;;;;;;2075287;28;19920;-75
2023/07/22 00:45:09;;;;;;;;;;;15.60;99.90;;;;;;2075080;28;19913;-72
2023/07/22 00:46:10;;;;;;;;;;;15.50;99.90;;;;;;2062660;28;19921;-72
2023/07/22 00:47:10;;;;;;;;;;;15.50;99.90;;;;;;2077472;28;20031;-73
2023/07/22 00:48:13;;;;;;;;;;;15.50;99.90;;;;;;2063916;28;19964;-74
2023/07/22 00:49:14;;;;;;;;;;;15.50;99.90;;;;;;2063881;28;20048;-73
2023/07/22 00:50:15;;;;;;;;;;;15.50;99.90;;;;;;2076838;28;19965;-73
2023/07/22 00:51:16;;;;;;;;;;;15.50;99.90;;;;;;2077276;28;19975;-73
2023/07/22 00:52:17;;;;;;;;;;;15.50;99.90;;;;;;2075834;28;19921;-78
2023/07/22 00:53:18;;;;;;;;;;;15.50;99.90;;;;;;2075255;28;19928;-69
2023/07/22 00:54:18;;;;;;;;;;;15.50;99.90;;;;;;2075135;28;19999;-81
2023/07/22 00:55:19;;;;;;;;;;;15.50;99.90;;;;;;2075921;28;19913;-74
2023/07/22 00:56:20;;;;;;;;;;;15.50;99.90;;;;;;2077300;28;20331;-74
2023/07/22 00:57:21;;;;;;;;;;;15.50;99.90;;;;;;2066776;28;20547;-74
2023/07/22 00:58:21;;;;;;;;;;;15.50;99.90;;;;;;2075189;28;19924;-73
2023/07/22 00:59:22;;;;;;;;;;;15.50;99.90;;;;;;2075223;28;19917;-74
2023/07/22 01:00:22;;;;;;;;;;;15.50;99.90;;;;;;2068917;28;20458;-73
2023/07/22 01:01:23;;;;;;;;;;;15.50;99.90;;;;;;2075206;28;19928;-74
2023/07/22 01:02:23;;;;;;;;;;;15.50;99.90;;;;;;2075690;28;19921;-73
2023/07/22 01:03:25;;;;;;;;;;;15.50;99.90;;;;;;2066919;28;20429;-73
2023/07/22 01:04:25;;;;;;;;;;;15.50;99.90;;;;;;2067091;28;20454;-74
2023/07/22 01:05:26;;;;;;;;;;;15.50;99.90;;;;;;2075807;28;19952;-73
2023/07/22 01:06:30;;;;;;;;;;;15.50;99.90;;;;;;2077122;28;19959;-74
2023/07/22 01:07:30;;;;;;;;;;;15.50;99.90;;;;;;2076977;28;20168;-74
2023/07/22 01:08:31;;;;;;;;;;;15.50;99.90;;;;;;2060724;28;19917;-73
2023/07/22 01:09:35;;;;;;;;;;;15.60;99.90;;;;;;2066801;28;20354;-73
2023/07/22 01:10:36;;;;;;;;;;;15.50;99.90;;;;;;2066736;28;20404;-73
2023/07/22 01:11:36;;;;;;;;;;;15.60;99.90;;;;;;2058889;28;19922;-74
2023/07/22 01:12:38;;;;;;;;;;;15.60;99.90;;;;;;2068242;28;19917;-73
2023/07/22 01:13:38;;;;;;;;;;;15.60;99.90;;;;;;2074989;28;19921;-73
2023/07/22 01:14:40;;;;;;;;;;;15.60;99.90;;;;;;2074879;28;20381;-73
2023/07/22 01:15:41;;;;;;;;;;;15.60;99.90;;;;;;2075101;28;19917;-74
2023/07/22 01:16:42;;;;;;;;;;;15.60;99.90;;;;;;2077758;28;20021;-73
2023/07/22 01:17:42;;;;;;;;;;;15.60;99.90;;;;;;2075103;28;20414;-73
2023/07/22 01:18:43;;;;;;;;;;;15.60;99.90;;;;;;2076407;28;19924;-73
2023/07/22 01:19:43;;;;;;;;;;;15.60;99.90;;;;;;2079592;28;19917;-73
2023/07/22 01:20:45;;;;;;;;;;;15.60;99.90;;;;;;2076617;28;19979;-73
2023/07/22 01:21:46;;;;;;;;;;;15.60;99.90;;;;;;2075493;28;19920;-73
2023/07/22 01:22:51;;;;;;;;;;;15.60;99.90;;;;;;2074794;28;20040;-74
2023/07/22 01:23:52;;;;;;;;;;;15.60;99.90;;;;;;2074982;28;19923;-73
2023/07/22 01:24:53;;;;;;;;;;;15.60;99.90;;;;;;2068619;28;20403;-73
2023/07/22 01:25:54;;;;;;;;;;;15.60;99.90;;;;;;2071203;28;19921;-73
2023/07/22 01:26:55;;;;;;;;;;;15.60;99.90;;;;;;2075085;28;19917;-73
2023/07/22 01:27:56;;;;;;;;;;;15.60;99.90;;;;;;2074245;28;19940;-73
2023/07/22 01:29:05;;;;;;;;;;;15.60;99.90;;;;;;2076611;28;20422;-73
2023/07/22 01:30:09;;;;;;;;;;;15.60;99.90;;;;;;2071313;28;19924;-73
2023/07/22 01:31:10;;;;;;;;;;;15.60;99.90;;;;;;2076732;28;19913;-74
2023/07/22 01:32:10;;;;;;;;;;;15.60;99.90;;;;;;2074689;28;19928;-73
2023/07/22 01:33:11;;;;;;;;;;;15.60;99.90;;;;;;2075597;28;19983;-73
2023/07/22 01:34:12;;;;;;;;;;;15.60;99.90;;;;;;2074497;28;19975;-73
2023/07/22 01:35:13;;;;;;;;;;;15.60;99.90;;;;;;2075683;28;19913;-73
2023/07/22 01:36:13;;;;;;;;;;;15.60;99.90;;;;;;2074799;28;20360;-73
2023/07/22 01:37:14;;;;;;;;;;;15.60;99.90;;;;;;2066958;28;19919;-73
2023/07/22 01:38:14;;;;;;;;;;;15.60;99.90;;;;;;2076977;28;19920;-73
2023/07/22 01:39:16;;;;;;;;;;;15.60;99.90;;;;;;2074836;28;19967;-73
2023/07/22 01:40:17;;;;;;;;;;;15.60;99.90;;;;;;2075820;28;20396;-73
2023/07/22 01:41:18;;;;;;;;;;;15.60;99.90;;;;;;2066752;28;19960;-73
2023/07/22 01:42:18;;;;;;;;;;;15.60;99.90;;;;;;2068569;28;19917;-73
2023/07/22 01:43:19;;;;;;;;;;;15.60;99.90;;;;;;2066679;28;19921;-73
2023/07/22 01:44:19;;;;;;;;;;;15.60;99.90;;;;;;2058657;28;20112;-73
2023/07/22 01:45:20;;;;;;;;;;;15.60;99.90;;;;;;2050520;28;19914;-73
2023/07/22 01:46:21;;;;;;;;;;;15.60;99.90;;;;;;2068747;28;19913;-73
2023/07/22 01:47:22;;;;;;;;;;;15.50;99.90;;;;;;2074905;28;19917;-73
2023/07/22 01:48:23;;;;;;;;;;;15.60;99.90;;;;;;2071476;28;19923;-72
2023/07/22 01:49:24;;;;;;;;;;;15.50;99.90;;;;;;2068125;28;20364;-73
2023/07/22 01:50:24;;;;;;;;;;;15.60;99.90;;;;;;2064002;28;19920;-73
2023/07/22 01:51:25;;;;;;;;;;;15.60;99.90;;;;;;2074829;28;19921;-73
2023/07/22 01:52:25;;;;;;;;;;;15.50;99.90;;;;;;2075624;28;20507;-72
2023/07/22 01:53:26;;;;;;;;;;;15.50;99.90;;;;;;2070823;28;19948;-73
2023/07/22 01:54:26;;;;;;;;;;;15.50;99.90;;;;;;2076836;28;20399;-73
2023/07/22 01:55:27;;;;;;;;;;;15.40;99.90;;;;;;2063253;28;19914;-73
2023/07/22 01:56:28;;;;;;;;;;;15.40;99.90;;;;;;2067445;28;20447;-74
2023/07/22 01:57:28;;;;;;;;;;;15.40;99.90;;;;;;2079234;28;20180;-73
2023/07/22 01:58:29;;;;;;;;;;;15.40;99.90;;;;;;2068304;28;19917;-73
2023/07/22 01:59:29;;;;;;;;;;;15.40;99.90;;;;;;2066504;28;20081;-73
2023/07/22 02:00:30;;;;;;;;;;;15.40;99.90;;;;;;2066293;28;19920;-73
2023/07/22 02:01:31;;;;;;;;;;;15.40;99.90;;;;;;2078418;28;19913;-73
2023/07/22 02:02:31;;;;;;;;;;;15.40;99.90;;;;;;2077802;28;20380;-73
2023/07/22 02:03:32;;;;;;;;;;;15.30;99.90;;;;;;2080635;28;19917;-73
2023/07/22 02:04:32;;;;;;;;;;;15.40;99.90;;;;;;2079323;28;20008;-73
2023/07/22 02:05:33;;;;;;;;;;;15.30;99.90;;;;;;2059377;28;19952;-73
2023/07/22 02:06:34;;;;;;;;;;;15.40;99.90;;;;;;2061878;28;19914;-74
2023/07/22 02:07:35;;;;;;;;;;;15.30;99.90;;;;;;2076196;28;20047;-73
2023/07/22 02:08:36;;;;;;;;;;;15.30;99.90;;;;;;2061747;28;19971;-73
2023/07/22 02:09:37;;;;;;;;;;;15.30;99.90;;;;;;2066589;28;19922;-73
2023/07/22 02:10:37;;;;;;;;;;;15.30;99.90;;;;;;2074810;28;19909;-73
2023/07/22 02:11:38;;;;;;;;;;;15.30;99.90;;;;;;2077242;28;19917;-74
2023/07/22 02:12:39;;;;;;;;;;;15.30;99.90;;;;;;2075083;28;19917;-74
2023/07/22 02:13:39;;;;;;;;;;;15.30;99.90;;;;;;2074462;28;19929;-73
2023/07/22 02:14:40;;;;;;;;;;;15.30;99.90;;;;;;2069148;28;20440;-73
2023/07/22 02:15:41;;;;;;;;;;;15.30;99.90;;;;;;2060300;28;20383;-73
2023/07/22 02:16:42;;;;;;;;;;;15.30;99.90;;;;;;2066412;28;20004;-73
2023/07/22 02:17:42;;;;;;;;;;;15.30;99.90;;;;;;2086210;28;20116;-73
2023/07/22 02:18:46;;;;;;;;;;;15.30;99.90;;;;;;2077519;28;22571;-73
2023/07/22 02:19:46;;;;;;;;;;;15.20;99.90;;;;;;2074375;28;20080;-73
2023/07/22 02:20:47;;;;;;;;;;;15.20;99.90;;;;;;2074413;28;20467;-73
2023/07/22 02:21:48;;;;;;;;;;;15.20;99.90;;;;;;2074528;28;19917;-72
2023/07/22 02:22:48;;;;;;;;;;;15.20;99.90;;;;;;2076533;28;19976;-74
2023/07/22 02:23:49;;;;;;;;;;;15.20;99.90;;;;;;2074440;28;19917;-73
2023/07/22 02:24:49;;;;;;;;;;;15.10;99.90;;;;;;2075215;28;19982;-73
2023/07/22 02:25:50;;;;;;;;;;;15.20;99.90;;;;;;2077379;28;20251;-73
2023/07/22 02:26:51;;;;;;;;;;;15.10;99.90;;;;;;2072545;28;20189;-73
2023/07/22 02:27:51;;;;;;;;;;;15.10;99.90;;;;;;2086026;28;19917;-73
2023/07/22 02:28:52;;;;;;;;;;;15.10;99.90;;;;;;2078061;28;19944;-73
2023/07/22 02:29:52;;;;;;;;;;;15.10;99.90;;;;;;2074557;28;19917;-72
2023/07/22 02:30:53;;;;;;;;;;;15.10;99.90;;;;;;2076562;28;19917;-73
2023/07/22 02:31:54;;;;;;;;;;;15.10;99.90;;;;;;2074508;28;20019;-73
2023/07/22 02:32:55;;;;;;;;;;;15.10;99.90;;;;;;2075120;28;20277;-72
2023/07/22 02:33:56;;;;;;;;;;;15.00;99.90;;;;;;2075259;28;20498;-72
2023/07/22 02:34:57;;;;;;;;;;;15.10;99.90;;;;;;2077138;28;20289;-73
2023/07/22 02:35:57;;;;;;;;;;;15.00;99.90;;;;;;2074945;28;19986;-72
2023/07/22 02:36:58;;;;;;;;;;;15.00;99.90;;;;;;2075113;28;20066;-72
2023/07/22 02:37:58;;;;;;;;;;;15.00;99.90;;;;;;2074352;28;19921;-72
2023/07/22 02:38:59;;;;;;;;;;;15.00;99.90;;;;;;2074438;28;19921;-73
2023/07/22 02:39:59;;;;;;;;;;;15.00;99.90;;;;;;2075936;28;19917;-72
2023/07/22 02:41:07;;;;;;;;;;;14.90;99.90;;;;;;2078099;28;19967;-73
2023/07/22 02:42:08;;;;;;;;;;;15.00;99.90;;;;;;2066239;28;20629;-73
2023/07/22 02:43:08;;;;;;;;;;;15.00;99.90;;;;;;2076124;28;19924;-74
2023/07/22 02:44:09;;;;;;;;;;;15.00;99.90;;;;;;2076148;28;20000;-73
2023/07/22 02:45:10;;;;;;;;;;;15.00;99.90;;;;;;2077799;28;19917;-73
2023/07/22 02:46:10;;;;;;;;;;;15.00;99.90;;;;;;2078892;28;19967;-73
2023/07/22 02:47:11;;;;;;;;;;;15.00;99.90;;;;;;2087805;28;19917;-74
2023/07/22 02:48:11;;;;;;;;;;;15.00;99.90;;;;;;2075810;28;19924;-73
2023/07/22 02:49:12;;;;;;;;;;;14.90;99.90;;;;;;2076014;28;19919;-79
2023/07/22 02:50:12;;;;;;;;;;;14.90;99.90;;;;;;2078839;28;20385;-73
2023/07/22 02:51:13;;;;;;;;;;;14.90;99.90;;;;;;2071373;28;19917;-73
2023/07/22 02:52:13;;;;;;;;;;;14.90;99.90;;;;;;2076016;28;19917;-73
2023/07/22 02:53:14;;;;;;;;;;;14.90;99.90;;;;;;2076522;28;19975;-73
2023/07/22 02:54:14;;;;;;;;;;;14.90;99.90;;;;;;2078460;28;19917;-73
2023/07/22 02:55:18;;;;;;;;;;;14.90;99.90;;;;;;2076628;28;19917;-73
2023/07/22 02:56:19;;;;;;;;;;;14.90;99.90;;;;;;2076573;28;20015;-73
2023/07/22 02:57:19;;;;;;;;;;;14.90;99.90;;;;;;2079406;28;19936;-73
2023/07/22 02:58:20;;;;;;;;;;;14.80;99.90;;;;;;2065403;28;19972;-73
2023/07/22 02:59:20;;;;;;;;;;;14.90;99.90;;;;;;2067812;28;19972;-74
2023/07/22 03:00:24;;;;;;;;;;;14.80;99.90;;;;;;2069557;28;19933;-73
2023/07/22 03:01:24;;;;;;;;;;;14.80;99.90;;;;;;2073443;28;19971;-72
2023/07/22 03:02:25;;;;;;;;;;;14.80;99.90;;;;;;2075814;28;19921;-73
2023/07/22 03:03:26;;;;;;;;;;;14.80;99.90;;;;;;2067457;28;20355;-73
2023/07/22 03:04:27;;;;;;;;;;;14.80;99.90;;;;;;2076025;28;19953;-74
2023/07/22 03:05:28;;;;;;;;;;;14.80;99.90;;;;;;2077296;28;19971;-74
2023/07/22 03:06:30;;;;;;;;;;;14.80;99.90;;;;;;2073939;28;19928;-73
2023/07/22 03:07:30;;;;;;;;;;;14.80;99.90;;;;;;2076107;28;20391;-73
2023/07/22 03:08:31;;;;;;;;;;;14.80;99.90;;;;;;2070360;28;19917;-74
2023/07/22 03:09:32;;;;;;;;;;;14.80;99.90;;;;;;2078668;28;19924;-74
2023/07/22 03:10:33;;;;;;;;;;;14.80;99.90;;;;;;2069471;28;19917;-73
2023/07/22 03:11:34;;;;;;;;;;;14.80;99.90;;;;;;2067778;28;19927;-72
2023/07/22 03:12:35;;;;;;;;;;;14.80;99.90;;;;;;2075649;28;19923;-72
2023/07/22 03:13:36;;;;;;;;;;;14.80;99.90;;;;;;2075158;28;20004;-72
2023/07/22 03:14:37;;;;;;;;;;;14.80;99.90;;;;;;2073414;28;19921;-73
2023/07/22 03:15:37;;;;;;;;;;;14.80;99.90;;;;;;2082167;28;20299;-72
2023/07/22 03:16:38;;;;;;;;;;;14.80;99.90;;;;;;2087511;28;19928;-72
2023/07/22 03:17:41;;;;;;;;;;;14.80;99.90;;;;;;2075789;28;20538;-72
2023/07/22 03:18:43;;;;;;;;;;;14.80;99.90;;;;;;2075798;28;19924;-72
2023/07/22 03:19:43;;;;;;;;;;;14.80;99.90;;;;;;2077357;28;19951;-73
2023/07/22 03:20:44;;;;;;;;;;;14.70;99.90;;;;;;2072770;28;19936;-71
2023/07/22 03:21:44;;;;;;;;;;;14.80;99.90;;;;;;2062817;28;19928;-71
2023/07/22 03:22:45;;;;;;;;;;;14.80;99.90;;;;;;2075580;28;19984;-72
2023/07/22 03:23:45;;;;;;;;;;;14.80;99.90;;;;;;2078146;28;20399;-73
2023/07/22 03:24:46;;;;;;;;;;;14.80;99.90;;;;;;2075614;28;20187;-73
2023/07/22 03:25:47;;;;;;;;;;;14.80;99.90;;;;;;2075700;28;19952;-73
2023/07/22 03:26:48;;;;;;;;;;;14.80;99.90;;;;;;2075631;28;20486;-72
2023/07/22 03:27:49;;;;;;;;;;;14.80;99.90;;;;;;2069448;28;19925;-72
2023/07/22 03:28:49;;;;;;;;;;;14.80;99.90;;;;;;2075550;28;19921;-72
2023/07/22 03:29:50;;;;;;;;;;;14.80;99.90;;;;;;2088549;28;19922;-73
2023/07/22 03:30:50;;;;;;;;;;;14.80;99.90;;;;;;2088829;28;19917;-72
2023/07/22 03:31:51;;;;;;;;;;;14.80;99.90;;;;;;2077374;28;19921;-72
2023/07/22 03:32:51;;;;;;;;;;;14.80;99.90;;;;;;2075556;28;19979;-74
2023/07/22 03:33:52;;;;;;;;;;;14.80;99.90;;;;;;2067501;28;19960;-73
2023/07/22 03:34:52;;;;;;;;;;;14.80;99.90;;;;;;2075636;28;19917;-73
2023/07/22 03:35:53;;;;;;;;;;;14.80;99.90;;;;;;2077533;28;20482;-74
2023/07/22 03:36:54;;;;;;;;;;;14.80;99.90;;;;;;2064566;28;19924;-74
2023/07/22 03:37:55;;;;;;;;;;;14.80;99.90;;;;;;2075811;28;19971;-73
2023/07/22 03:38:55;;;;;;;;;;;14.90;99.90;;;;;;2084692;28;19917;-72
2023/07/22 03:39:56;;;;;;;;;;;14.90;99.90;;;;;;2081402;28;20388;-72
2023/07/22 03:40:56;;;;;;;;;;;14.80;99.90;;;;;;2075741;28;19924;-73
2023/07/22 03:41:57;;;;;;;;;;;14.90;99.90;;;;;;2076263;28;19960;-73
2023/07/22 03:42:58;;;;;;;;;;;14.90;99.90;;;;;;2076432;28;20380;-75
2023/07/22 03:43:58;;;;;;;;;;;14.90;99.90;;;;;;2075333;28;19921;-73
2023/07/22 03:44:59;;;;;;;;;;;14.90;99.90;;;;;;2073502;28;19917;-73
2023/07/22 03:45:59;;;;;;;;;;;14.90;99.90;;;;;;2074662;28;19987;-73
2023/07/22 03:47:00;;;;;;;;;;;14.90;99.90;;;;;;2075653;28;19916;-72
2023/07/22 03:48:00;;;;;;;;;;;14.90;99.90;;;;;;2076396;28;20031;-72
2023/07/22 03:49:01;;;;;;;;;;;14.90;99.90;;;;;;2078289;28;20220;-72
2023/07/22 03:50:01;;;;;;;;;;;14.90;99.90;;;;;;2076014;28;19925;-73
2023/07/22 03:51:02;;;;;;;;;;;14.90;99.90;;;;;;2075417;28;20012;-73
2023/07/22 03:52:03;;;;;;;;;;;14.90;99.90;;;;;;2076437;28;19960;-74
2023/07/22 03:53:03;;;;;;;;;;;14.90;99.90;;;;;;2075374;28;19944;-73
2023/07/22 03:54:04;;;;;;;;;;;14.90;99.90;;;;;;2077409;28;19917;-73
2023/07/22 03:55:05;;;;;;;;;;;15.00;99.90;;;;;;2072829;28;20005;-73
2023/07/22 03:56:05;;;;;;;;;;;15.00;99.90;;;;;;2065401;28;19914;-73
2023/07/22 03:57:06;;;;;;;;;;;15.00;99.90;;;;;;2078984;28;19924;-73
2023/07/22 03:58:06;;;;;;;;;;;15.00;99.90;;;;;;2090277;28;20214;-73
2023/07/22 03:59:07;;;;;;;;;;;15.10;99.90;;;;;;2076356;28;19969;-73
2023/07/22 04:00:10;;;;;;;;;;;15.10;99.90;;;;;;2075405;28;19924;-73
2023/07/22 04:01:14;;;;;;;;;;;15.10;99.90;;;;;;2067698;28;19921;-73
2023/07/22 04:02:15;;;;;;;;;;;15.10;99.90;;;;;;2075775;28;19917;-73
2023/07/22 04:03:15;;;;;;;;;;;15.10;99.90;;;;;;2069027;28;20015;-73
2023/07/22 04:04:16;;;;;;;;;;;15.20;99.90;;;;;;2070626;28;19952;-73
2023/07/22 04:05:16;;;;;;;;;;;15.10;99.90;;;;;;2086903;28;19931;-73
2023/07/22 04:06:17;;;;;;;;;;;15.20;99.90;;;;;;2077963;28;19968;-73
2023/07/22 04:07:18;;;;;;;;;;;15.20;99.90;;;;;;2075309;28;19913;-73
2023/07/22 04:08:18;;;;;;;;;;;15.30;99.90;;;;;;2067254;28;20388;-74
2023/07/22 04:09:19;;;;;;;;;;;15.30;99.90;;;;;;2073319;28;19920;-73
2023/07/22 04:10:20;;;;;;;;;;;15.30;99.90;;;;;;2075406;28;19919;-73
2023/07/22 04:11:20;;;;;;;;;;;15.30;99.90;;;;;;2088610;28;20028;-73
2023/07/22 04:12:21;;;;;;;;;;;15.30;99.90;;;;;;2080086;28;19916;-73
2023/07/22 04:13:22;;;;;;;;;;;15.40;99.90;;;;;;2075234;28;19951;-72
2023/07/22 04:14:23;;;;;;;;;;;15.40;99.90;;;;;;2076288;28;20527;-72
2023/07/22 04:15:25;;;;;;;;;;;15.40;99.90;;;;;;2078164;28;19917;-73
2023/07/22 04:16:26;;;;;;;;;;;15.40;99.90;;;;;;2073613;28;20648;-72
2023/07/22 04:17:26;;;;;;;;;;;15.40;99.90;;;;;;2071640;28;19984;-72
2023/07/22 04:18:33;;;;;;;;;;;15.50;99.90;;;;;;2075270;28;19952;-72
2023/07/22 04:19:33;;;;;;;;;;;15.50;99.90;;;;;;2068058;28;19960;-72
2023/07/22 04:20:34;;;;;;;;;;;15.70;99.90;;;;;;2076918;28;19917;-71
2023/07/22 04:21:34;;;;;;;;;;;15.90;99.90;;;;;;2072039;28;20377;-72
2023/07/22 04:22:35;;;;;;;;;;;16.00;99.90;;;;;;2073674;28;19924;-72
2023/07/22 04:23:36;;;;;;;;;;;16.30;99.90;;;;;;2075166;28;19917;-72
2023/07/22 04:24:39;;;;;;;;;;;16.50;99.90;;;;;;2077461;28;19917;-73
2023/07/22 04:25:40;;;;;;;;;;;16.70;99.90;;;;;;2067249;28;20398;-72
2023/07/22 04:26:44;;;;;;;;;;;16.90;99.90;;;;;;2075232;28;19913;-72
2023/07/22 04:27:45;;;;;;;;;;;17.20;99.90;;;;;;2075872;28;20284;-73
2023/07/22 04:28:45;;;;;;;;;;;17.40;99.90;;;;;;2075131;28;19923;-72
2023/07/22 04:29:46;;;;;;;;;;;17.60;99.90;;;;;;2066383;28;19917;-73
2023/07/22 04:30:54;;;;;;;;;;;17.80;99.90;;;;;;2072091;28;19999;-70
2023/07/22 04:31:59;;;;;;;;;;;17.90;99.90;;;;;;2076826;28;19921;-72
2023/07/22 04:32:59;;;;;;;;;;;18.10;99.90;;;;;;2073317;28;19921;-73
2023/07/22 04:34:00;;;;;;;;;;;18.20;99.90;;;;;;2086966;28;19912;-73
2023/07/22 04:35:00;;;;;;;;;;;18.30;99.90;;;;;;2078466;28;19913;-73
2023/07/22 04:36:01;;;;;;;;;;;18.40;99.90;;;;;;2075397;28;19917;-73
2023/07/22 04:37:01;;;;;;;;;;;18.50;99.90;;;;;;2077370;28;19917;-73
2023/07/22 04:38:03;;;;;;;;;;;18.60;99.90;;;;;;2075184;28;19917;-73
2023/07/22 04:39:05;;;;;;;;;;;18.80;99.90;;;;;;2075408;28;20465;-73
2023/07/22 04:40:08;;;;;;;;;;;18.90;99.90;;;;;;2075232;28;19917;-73
2023/07/22 04:41:09;;;;;;;;;;;19.00;99.90;;;;;;2077806;28;19925;-71
2023/07/22 04:42:10;;;;;;;;;;;19.20;99.90;;;;;;2075991;28;19913;-72
2023/07/22 04:43:12;;;;;;;;;;;19.30;99.90;;;;;;2086733;28;19917;-73
2023/07/22 04:44:12;;;;;;;;;;;19.50;99.90;;;;;;2078550;28;19935;-72
2023/07/22 04:45:13;;;;;;;;;;;19.50;99.90;;;;;;2075200;28;19913;-72
2023/07/22 04:46:15;;;;;;;;;;;19.70;99.90;;;;;;2086865;28;19913;-72
2023/07/22 04:47:16;;;;;;;;;;;19.70;99.90;;;;;;2081704;28;20008;-73
2023/07/22 04:48:19;;;;;;;;;;;19.80;99.90;;;;;;2075127;28;20214;-73
2023/07/22 04:49:20;;;;;;;;;;;19.80;99.90;;;;;;2075787;28;19913;-73
2023/07/22 04:50:21;;;;;;;;;;;19.90;99.90;;;;;;2067005;28;20120;-73
2023/07/22 04:51:21;;;;;;;;;;;20.00;99.90;;;;;;2068722;28;19933;-73
2023/07/22 04:52:22;;;;;;;;;;;20.00;99.90;;;;;;2075558;28;20059;-73
2023/07/22 04:53:22;;;;;;;;;;;19.90;99.90;;;;;;2075505;28;20052;-73
2023/07/22 04:54:23;;;;;;;;;;;20.00;99.90;;;;;;2075702;28;20372;-73
2023/07/22 04:55:24;;;;;;;;;;;20.10;99.90;;;;;;2086639;28;19936;-73
2023/07/22 04:56:24;;;;;;;;;;;20.20;99.90;;;;;;2089957;28;20470;-73
2023/07/22 04:57:24;;;;;;;;;;;20.20;99.90;;;;;;2081360;28;20395;-73
2023/07/22 04:58:25;;;;;;;;;;;20.30;99.90;;;;;;2084375;28;19955;-73
2023/07/22 04:59:25;;;;;;;;;;;20.40;99.90;;;;;;2077792;28;20261;-73
2023/07/22 05:00:26;;;;;;;;;;;20.50;99.90;;;;;;2075139;28;20237;-73
2023/07/22 05:01:27;;;;;;;;;;;20.60;99.90;;;;;;2075150;28;20359;-74
2023/07/22 05:02:27;;;;;;;;;;;20.90;99.90;;;;;;2074830;28;20063;-73
2023/07/22 05:03:27;;;;;;;;;;;21.00;99.90;;;;;;2075602;28;20004;-73
2023/07/22 05:04:28;;;;;;;;;;;21.20;99.90;;;;;;2074926;28;19913;-73
2023/07/22 05:05:29;;;;;;;;;;;21.30;99.90;;;;;;2072921;28;19921;-73
2023/07/22 05:06:29;;;;;;;;;;;21.40;99.90;;;;;;2075146;28;19917;-74
2023/07/22 05:07:30;;;;;;;;;;;21.50;99.90;;;;;;2074604;28;19909;-73
2023/07/22 05:08:31;;;;;;;;;;;21.30;99.90;;;;;;2073423;28;19921;-72
2023/07/22 05:09:31;;;;;;;;;;;21.30;99.90;;;;;;2076846;28;19979;-73
2023/07/22 05:10:32;;;;;;;;;;;21.10;99.90;;;;;;2075686;28;20310;-73
2023/07/22 05:11:32;;;;;;;;;;;20.90;99.90;;;;;;2075549;28;20009;-72
2023/07/22 05:12:33;;;;;;;;;;;20.70;99.90;;;;;;2074883;28;19987;-73
2023/07/22 05:13:33;;;;;;;;;;;20.50;99.90;;;;;;2076715;28;19913;-73
2023/07/22 05:14:34;;;;;;;;;;;20.40;99.90;;;;;;2074839;28;20415;-72
2023/07/22 05:15:34;;;;;;;;;;;20.20;99.90;;;;;;2073966;28;20477;-73
2023/07/22 05:16:35;;;;;;;;;;;20.10;99.90;;;;;;2075503;28;19917;-73
2023/07/22 05:17:35;;;;;;;;;;;20.10;99.90;;;;;;2074976;28;20649;-72
2023/07/22 05:18:37;;;;;;;;;;;20.20;99.90;;;;;;2074759;28;19924;-73
2023/07/22 05:19:37;;;;;;;;;;;20.30;99.90;;;;;;2076666;28;20395;-72
2023/07/22 05:20:39;;;;;;;;;;;20.40;99.90;;;;;;2074428;28;20688;-72
2023/07/22 05:21:39;;;;;;;;;;;20.50;99.90;;;;;;2074702;28;19917;-72
2023/07/22 05:22:40;;;;;;;;;;;20.50;99.90;;;;;;2074697;28;20473;-72
2023/07/22 05:23:41;;;;;;;;;;;20.60;99.90;;;;;;2076973;28;20473;-73
2023/07/22 05:24:41;;;;;;;;;;;20.80;99.90;;;;;;2075415;28;19925;-74
2023/07/22 05:25:42;;;;;;;;;;;20.80;99.90;;;;;;2074550;28;19917;-72
2023/07/22 05:26:42;;;;;;;;;;;20.90;99.90;;;;;;2074871;28;20030;-72
2023/07/22 05:27:43;;;;;;;;;;;21.00;99.90;;;;;;2075535;28;19913;-72
2023/07/22 05:28:44;;;;;;;;;;;21.10;99.90;;;;;;2077400;28;19952;-72
2023/07/22 05:29:45;;;;;;;;;;;21.20;99.90;;;;;;2075607;28;20674;-72
2023/07/22 05:30:45;;;;;;;;;;;21.30;99.90;;;;;;2074788;28;20408;-74
2023/07/22 05:31:46;;;;;;;;;;;21.30;99.90;;;;;;2070513;28;19913;-72
2023/07/22 05:32:47;;;;;;;;;;;21.20;99.90;;;;;;2076837;28;19917;-73
2023/07/22 05:33:49;;;;;;;;;;;21.10;99.90;;;;;;2074789;28;19932;-74
2023/07/22 05:34:50;;;;;;;;;;;21.20;99.90;;;;;;2075028;28;19919;-73
2023/07/22 05:35:50;;;;;;;;;;;21.20;99.90;;;;;;2075558;28;20542;-72
2023/07/22 05:36:54;;;;;;;;;;;21.40;99.90;;;;;;2075605;28;19990;-72
2023/07/22 05:37:54;;;;;;;;;;;21.50;99.90;;;;;;2075147;28;19921;-75
2023/07/22 05:38:55;;;;;;;;;;;21.50;99.90;;;;;;2062184;28;19949;-74
2023/07/22 05:39:55;;;;;;;;;;;21.60;99.90;;;;;;2068377;28;19979;-75
2023/07/22 05:40:56;;;;;;;;;;;21.60;99.90;;;;;;2075334;28;20431;-75
2023/07/22 05:41:56;;;;;;;;;;;21.50;99.90;;;;;;2075576;28;19944;-74
2023/07/22 05:42:57;;;;;;;;;;;21.40;99.90;;;;;;2077558;28;19924;-73
2023/07/22 05:43:57;;;;;;;;;;;21.30;99.90;;;;;;2074895;28;20324;-72
2023/07/22 05:44:58;;;;;;;;;;;21.30;99.90;;;;;;2066670;28;20452;-73
2023/07/22 05:46:01;;;;;;;;;;;21.40;99.90;;;;;;2066619;28;19917;-73
2023/07/22 05:47:02;;;;;;;;;;;21.50;99.90;;;;;;2074782;28;19917;-73
2023/07/22 05:48:02;;;;;;;;;;;21.60;99.90;;;;;;2074669;28;20423;-73
2023/07/22 05:49:03;;;;;;;;;;;21.50;99.90;;;;;;2068574;28;19917;-73
2023/07/22 05:50:03;;;;;;;;;;;21.50;99.90;;;;;;2074532;28;19913;-73
2023/07/22 05:51:04;;;;;;;;;;;21.60;99.90;;;;;;2075746;28;19913;-74
2023/07/22 05:52:05;;;;;;;;;;;21.60;99.90;;;;;;2077488;28;19921;-74
2023/07/22 05:53:05;;;;;;;;;;;21.50;99.90;;;;;;2076661;28;20447;-73
2023/07/22 05:54:06;;;;;;;;;;;21.40;99.90;;;;;;2074794;28;19917;-74